Los Gatos, California
Current Conditions -  °F | °C
As of 1:53 PM on Sunday 23 Nov 2014 (Local Time) from KSJC Reporting Station
Broken Clouds Broken Clouds  
Wind Chill: 63°   Ceiling: 15000
Heat Index: 63°   Visibility: 10mi
Dew Point: 38°   Wind: 5mph
Humidity: 40%   Direction: 290°WNW
Pressure: 30.27"   Gusts: NA
Location:  37.22°N, 121.97°W
Report Text: KSJC 232153Z 29004KT 10SM FEW075 BKN150 17/03 A3027 RMK AO2 SLP250 T01720033
Loading
Personal Weather Stations






























Interactive Weather Map New forecast layout! Learn more

10-Day Weather Forecast

Advertisements
Track Severe Weather on mobile